DOH weather

Hamad International Airport
Doha, Ad Dawhah Municipality, Qatar

Public forecast

Using degrees Celsius for public forecast. Weather courtesy of forecast.io.

Closest aviation weather report (METAR) to Hamad International Airport

Closest report is Doha International Airport, 2.4 nm (4.5 km) WSW. Retrieved 2020/05/26 12:30 UTC (0 seconds ago):

OTBD 261230Z 36011KT 8000 NSC 33/25 Q1008 NOSIG

Aviation forecast (TAF) for Hamad International Airport

Retrieved 2020/05/26 12:00 UTC (20 minutes ago):

TAF OTHH 261105Z 2612/2718 02015KT CAVOK BECMG 2618/2620 29007KT BECMG 2705/2707 36008KT